EST,Max TemperatureF,Mean TemperatureF,Min TemperatureF,Max Dew PointF,MeanDew PointF,Min DewpointF,Max Humidity, Mean Humidity, Min Humidity, Max Sea Level PressureIn, Mean Sea Level PressureIn, Min Sea Level PressureIn, Max VisibilityMiles, Mean VisibilityMiles, Min VisibilityMiles, Max Wind SpeedMPH, Mean Wind SpeedMPH, Max Gust SpeedMPH,PrecipitationIn, CloudCover, Events, WindDirDegrees
2012-12-1,50,41,32,45,35,28,100,91,74,30.44,30.37,30.34,9,2,0,7,1,,0.00,2,Fog,315
2012-12-2,62,48,33,48,38,30,100,84,60,30.39,30.32,30.17,10,5,0,15,3,22,0.00,5,Fog,184
2012-12-3,70,59,48,52,49,46,90,73,53,30.26,30.22,30.16,10,10,10,15,6,,0.00,4,,185
2012-12-4,73,62,50,52,50,47,89,68,44,30.26,30.18,30.05,10,10,8,14,4,18,0.00,6,,171
2012-12-5,63,54,43,52,39,25,72,53,35,30.28,30.12,30.00,10,10,10,16,12,24,0.00,4,Rain,287
2012-12-6,41,36,30,30,24,22,82,59,47,30.39,30.32,30.28,10,10,10,16,9,,0.00,3,,15
2012-12-7,52,44,36,47,42,31,93,85,71,30.25,30.11,29.99,10,9,3,7,2,,0.74,8,Rain,172
2012-12-8,54,49,44,50,47,42,100,93,86,30.01,29.96,29.92,10,4,0,7,2,,0.04,7,Fog-Rain,167
2012-12-9,51,48,44,50,47,42,100,93,87,30.16,30.07,29.99,6,2,0,9,2,,0.10,6,Fog-Rain,18
2012-12-10,69,58,48,63,52,46,100,89,70,29.96,29.82,29.61,10,4,0,12,2,17,0.00,6,Fog-Rain,168
2012-12-11,64,54,43,56,39,29,82,67,52,30.22,29.96,29.65,10,10,9,21,12,31,0.07,6,Rain,325
2012-12-12,45,44,42,29,28,26,60,54,48,30.42,30.35,30.22,10,10,10,14,10,,0.00,5,,12
2012-12-13,48,39,30,31,29,26,85,62,48,30.43,30.39,30.36,10,10,10,16,11,,0.00,1,,355
2012-12-14,52,40,27,35,29,24,93,74,41,30.35,30.30,30.23,10,10,10,9,3,,0.00,0,,232
2012-12-15,50,40,30,42,36,28,92,79,61,30.31,30.23,30.13,10,10,10,9,2,,0.00,3,,119
2012-12-16,54,50,46,51,47,42,94,87,80,30.15,29.98,29.86,10,9,5,8,3,,0.08,8,Rain,154
2012-12-17,55,52,50,54,50,48,100,92,86,29.85,29.75,29.57,7,3,0,10,3,,0.02,8,Fog-Rain,108
2012-12-18,62,54,42,54,45,30,94,75,41,29.82,29.62,29.55,10,10,5,22,10,28,0.02,4,Rain,236
2012-12-19,54,44,34,37,33,28,86,65,49,30.18,29.97,29.82,10,10,10,16,6,,0.00,2,,295
2012-12-20,53,47,41,50,39,31,89,73,58,30.20,29.96,29.50,10,9,4,25,10,37,0.42,6,Rain,93
2012-12-21,57,47,37,55,37,22,94,69,45,29.59,29.41,29.28,10,9,2,23,18,36,0.51,7,Rain,236
2012-12-22,46,41,35,23,21,19,59,48,37,30.04,29.83,29.60,10,10,10,29,16,46,0.00,3,,274
2012-12-23,46,36,26,26,22,19,81,58,36,30.10,30.01,29.94,10,10,10,10,4,,0.00,2,,209
2012-12-24,45,38,30,41,33,25,93,78,60,30.09,29.99,29.90,10,9,6,12,5,,0.13,6,Rain,91
2012-12-25,46,42,37,40,37,32,89,80,68,30.25,30.09,29.90,10,9,5,14,6,,0.00,5,,330
2012-12-26,53,44,35,50,40,28,94,85,70,30.23,29.72,29.35,10,7,2,31,13,51,1.47,7,Rain-Snow,55
2012-12-27,45,41,35,36,28,23,87,64,46,30.01,29.71,29.38,10,10,10,30,20,47,0.00,6,,269
2012-12-28,43,36,28,31,27,24,82,70,53,30.15,30.08,30.02,10,10,10,12,6,,0.00,4,,269
2012-12-29,42,40,37,38,34,26,93,80,57,30.04,29.76,29.56,10,8,1,30,7,36,0.17,7,Rain,247
2012-12-30,42,38,34,26,21,18,60,49,38,30.34,30.12,29.81,10,10,10,33,20,43,0.00,2,,288
2012-12-31,45,36,26,25,21,19,78,53,39,30.35,30.20,30.01,10,10,10,13,7,18,0.00,4,,221